• Join FlightAware (Why Join?)
  • Login
  • US Flag 
03:48PM EDT


 

Airport Tracker/Info


-or-


 

Live Flight TrackerFlight Track Log ✈ TF-LLX ✈ 16-Apr-2013 ✈ KIAD - BIKF / KEF

Flight Track Log - Related Links

Times and Time Zones

All times are in EDT time to prevent confusion due to time zone crossing. See the TF-LLX flight status page for this flight to view local times or setup timezone preferences in your user account.

Time Position Orientation Groundspeed Altitude Reporting Facility
EDT Latitude Longitude Course Direction KTS MPH feet Rate Location/Type
08:48PM 38.9720 -77.5320 317° Northwest 219 252 2,300  Level FlightAware
08:48PM 38.9810 -77.5420 319° Northwest 236 272 2,600 1,800 Climbing FlightAware
08:49PM 39.0060 -77.5710 318° Northwest 271 312 3,500 2,100 Climbing FlightAware
08:49PM 39.0230 -77.5820 333° Northwest 286 329 4,200 3,480 Climbing FlightAware
08:49PM 39.0690 -77.5640 17° North 281 323 6,700 3,240 Climbing FlightAware
08:50PM 39.0960 -77.5300 44° Northeast 292 336 8,000 2,400 Climbing FlightAware
08:50PM 39.1170 -77.4960 51° Northeast 302 348 8,700 840 Climbing FlightAware
08:51PM 39.1380 -77.4540 57° Northeast 304 350 8,800 60 Climbing FlightAware
08:51PM 39.1610 -77.4050 59° Northeast 302 348 8,800  Level FlightAware
08:52PM 39.1740 -77.3790 57° Northeast 304 350 8,800  Level FlightAware
08:52PM 39.2020 -77.3210 58° Northeast 305 351 8,800  Level FlightAware
08:53PM 39.2230 -77.2760 59° Northeast 305 351 8,800 240 Level FlightAware
08:53PM 39.2360 -77.2490 58° Northeast 307 353 9,000 660 Climbing FlightAware
08:54PM 39.2650 -77.1900 58° Northeast 310 357 9,500 1,200 Climbing FlightAware
08:54PM 39.2930 -77.1320 58° Northeast 329 379 10,500 1,440 Climbing FlightAware
08:55PM 39.3330 -77.0210 65° Northeast 395 455 11,700 1,500 Climbing FlightAware
08:56PM 39.3310 -76.9710 93° East 401 461 12,400 1,980 Climbing FlightAware
08:56PM 39.3200 -76.8820 99° East 413 475 13,700 1,080 Climbing FlightAware
08:57PM 39.3080 -76.7920 100° East 413 475 13,800 780 Climbing FlightAware
08:58PM 39.2910 -76.6530 99° East 417 480 14,900 960 Climbing FlightAware
08:58PM 39.2826 -76.5888 100° East 422 486 15,000 900 Climbing FlightAware ADS-B
08:59PM 39.2728 -76.5091 99° East 423 487 15,700 1,860 Climbing FlightAware ADS-B
08:59PM 39.2630 -76.4319 99° East 424 488 17,000 2,340 Climbing FlightAware ADS-B
09:00PM 39.2530 -76.3538 99° East 432 497 18,200 2,100 Climbing FlightAware ADS-B
09:00PM 39.2427 -76.2743 99° East 441 507 19,200 1,920 Climbing FlightAware ADS-B
09:01PM 39.2324 -76.1934 99° East 447 514 20,200 1,800 Climbing FlightAware ADS-B
09:01PM 39.2216 -76.1113 100° East 456 525 21,100 1,740 Climbing FlightAware ADS-B
09:02PM 39.2099 -76.0220 100° East 462 532 22,100 1,920 Climbing FlightAware ADS-B
09:02PM 39.2021 -75.9625 100° East 462 532 22,900 1,680 Climbing FlightAware ADS-B
09:02PM 39.2011 -75.9459 94° East 464 534 22,900 420 Level FlightAware ADS-B
09:02PM 39.2015 -75.9239 89° East 464 534 23,000 300 Climbing FlightAware ADS-B
09:02PM 39.2050 -75.8967 81° East 464 534 23,000 360 Level FlightAware ADS-B
09:03PM 39.2084 -75.8833 72° East 463 533 23,100 1,500 Climbing FlightAware ADS-B
09:03PM 39.2142 -75.8657 67° East 459 528 23,300 1,800 Climbing FlightAware ADS-B
09:03PM 39.2172 -75.8584 62° Northeast 458 527 23,400 1,980 Climbing FlightAware ADS-B
09:03PM 39.2241 -75.8445 57° Northeast 459 528 23,600 1,560 Climbing FlightAware ADS-B
09:03PM 39.2349 -75.8249 55° Northeast 459 528 23,800 1,500 Climbing FlightAware ADS-B
09:03PM 39.2794 -75.7654 46° Northeast 463 533 24,600 1,980 Climbing FlightAware ADS-B
09:04PM 39.3285 -75.7031 44° Northeast 458 527 25,900 2,520 Climbing FlightAware ADS-B
09:05PM 39.3749 -75.6431 45° Northeast 447 514 27,300 1,920 Climbing FlightAware ADS-B
09:05PM 39.4200 -75.5859 44° Northeast 455 524 27,900 1,200 Climbing FlightAware ADS-B
09:06PM 39.4670 -75.5259 45° Northeast 459 528 28,600 1,140 Climbing FlightAware ADS-B
09:06PM 39.5195 -75.4572 45° Northeast 465 535 29,200 1,140 Climbing FlightAware ADS-B
09:07PM 39.5700 -75.3895 46° Northeast 470 541 29,900 1,200 Climbing FlightAware ADS-B
09:07PM 39.6188 -75.3271 45° Northeast 473 544 30,500 1,080 Climbing FlightAware ADS-B
09:08PM 39.6696 -75.2572 47° Northeast 481 554 31,100 1,080 Climbing FlightAware ADS-B
09:08PM 39.7163 -75.1907 48° Northeast 484 557 31,700 1,140 Climbing FlightAware ADS-B
09:09PM 39.7617 -75.1258 48° Northeast 485 558 32,300 1,260 Climbing FlightAware ADS-B
09:09PM 39.8136 -75.0526 47° Northeast 484 557 33,100 1,380 Climbing FlightAware ADS-B
09:10PM 39.8606 -74.9858 47° Northeast 484 557 33,800 1,320 Climbing FlightAware ADS-B
09:10PM 39.9140 -74.9090 48° Northeast 479 551 34,600 1,320 Climbing FlightAware ADS-B
09:11PM 39.9622 -74.8408 47° Northeast 477 549 35,300 1,200 Climbing FlightAware ADS-B
09:12PM 40.0067 -74.7753 48° Northeast 472 543 35,900 1,020 Climbing FlightAware ADS-B
09:12PM 40.0540 -74.7080 47° Northeast 470 541 36,400 960 Climbing FlightAware ADS-B
09:13PM 40.0979 -74.6452 48° Northeast 469 540 36,900 600 Climbing FlightAware ADS-B
09:13PM 40.1419 -74.5823 48° Northeast 469 540 37,000 60 Climbing FlightAware ADS-B
09:14PM 40.1870 -74.5172 48° Northeast 470 541 37,000 -120 Level FlightAware ADS-B
09:14PM 40.2309 -74.4538 48° Northeast 469 540 36,900 -120 Descending FlightAware ADS-B
09:15PM 40.2774 -74.3864 48° Northeast 468 539 36,900 60 Level FlightAware ADS-B
09:15PM 40.3276 -74.3130 48° Northeast 466 536 37,000 60 Climbing FlightAware ADS-B
09:16PM 40.3758 -74.2438 48° Northeast 466 536 37,000  Level FlightAware ADS-B
09:16PM 40.4190 -74.1788 49° Northeast 465 535 37,000  Level FlightAware ADS-B
09:17PM 40.4650 -74.1115 48° Northeast 464 534 37,000  Level FlightAware ADS-B
09:17PM 40.5088 -74.0486 48° Northeast 463 533 37,000  Level FlightAware ADS-B
09:18PM 40.5524 -73.9835 49° Northeast 466 536 37,000  Level FlightAware ADS-B
09:18PM 40.5964 -73.9199 48° Northeast 468 539 37,000  Level FlightAware ADS-B
09:19PM 40.6402 -73.8537 49° Northeast 470 541 37,000 -120 Level FlightAware ADS-B
09:19PM 40.6856 -73.7872 48° Northeast 473 544 36,900  Descending FlightAware ADS-B
09:20PM 40.7376 -73.7093 49° Northeast 475 547 37,000  Climbing FlightAware ADS-B
09:20PM 40.7841 -73.6416 48° Northeast 480 552 36,900  Descending FlightAware ADS-B
09:21PM 40.8308 -73.5714 49° Northeast 481 554 37,000 60 Climbing FlightAware ADS-B
09:22PM 40.8803 -73.4965 49° Northeast 482 555 37,000  Level FlightAware ADS-B
09:22PM 40.9277 -73.4256 48° Northeast 485 558 37,000  Level FlightAware ADS-B
09:23PM 40.9723 -73.3587 49° Northeast 486 559 37,000  Level FlightAware ADS-B
09:23PM 41.0173 -73.2918 48° Northeast 487 560 37,000  Level FlightAware ADS-B
09:24PM 41.0654 -73.2201 48° Northeast 487 560 37,000  Level FlightAware ADS-B
09:24PM 41.1126 -73.1482 49° Northeast 487 560 37,000  Level FlightAware ADS-B
09:25PM 41.1574 -73.0808 49° Northeast 488 562 37,000  Level FlightAware ADS-B
09:25PM 41.2043 -73.0088 49° Northeast 488 562 37,000  Level FlightAware ADS-B
09:26PM 41.2489 -72.9413 49° Northeast 486 559 37,000  Level FlightAware ADS-B
09:26PM 41.2977 -72.8669 49° Northeast 487 560 37,000  Level FlightAware ADS-B
09:27PM 41.3459 -72.7925 49° Northeast 486 559 37,000  Level FlightAware ADS-B
09:27PM 41.3916 -72.7224 49° Northeast 486 559 37,000  Level FlightAware ADS-B
09:28PM 41.4367 -72.6546 48° Northeast 486 559 37,000  Level FlightAware ADS-B
09:28PM 41.4940 -72.5664 49° Northeast 486 559 37,000  Level FlightAware ADS-B
09:29PM 41.5810 -72.4630 42° Northeast 473 544 37,000  Level FlightAware
09:30PM 41.6550 -72.4050 30° Northeast 467 537 37,000  Level FlightAware
09:31PM 41.7400 -72.3390 30° Northeast 466 536 37,000  Level FlightAware
09:31PM 41.8160 -72.2810 30° Northeast 466 536 37,000  Level FlightAware
09:32PM 41.8750 -72.2350 30° Northeast 467 537 37,000  Level FlightAware
09:33PM 41.9540 -72.1740 30° Northeast 467 537 37,000  Level FlightAware
09:34PM 42.0540 -72.0980 29° Northeast 467 537 37,000  Level FlightAware
09:34PM 42.1250 -72.0410 31° Northeast 470 541 37,000  Level FlightAware
09:35PM 42.2040 -71.9760 31° Northeast 470 541 37,000  Level FlightAware
09:36PM 42.2930 -71.9030 31° Northeast 471 542 37,000  Level FlightAware
09:36PM 42.3690 -71.8420 31° Northeast 471 542 37,000  Level FlightAware
09:37PM 42.4470 -71.7780 31° Northeast 471 542 37,000  Level FlightAware
09:38PM 42.5250 -71.7140 31° Northeast 470 541 37,000  Level FlightAware
09:38PM 42.6000 -71.6520 31° Northeast 471 542 37,000 -120 Level FlightAware
09:39PM 42.6930 -71.5750 31° Northeast 472 543 36,900  Descending FlightAware
09:41PM 42.8260 -71.4640 31° Northeast 469 540 37,000  Climbing FlightAware
09:41PM 42.9120 -71.3930 31° Northeast 469 540 37,000  Level FlightAware
09:42PM 42.9830 -71.3340 31° Northeast 468 539 37,000  Level FlightAware
09:43PM 43.0600 -71.2680 32° Northeast 466 536 37,000  Level FlightAware
09:44PM 43.2250 -71.1300 31° Northeast 469 540 37,000  Level FlightAware
09:45PM 43.2980 -71.0690 31° Northeast 470 541 37,000 -120 Level FlightAware
09:45PM 43.3740 -71.0030 32° Northeast 471 542 36,900  Descending FlightAware
09:46PM 43.4510 -70.9380 31° Northeast 472 543 37,000 60 Climbing FlightAware
09:47PM 43.5590 -70.8460 32° Northeast 475 547 37,000  Level FlightAware
09:48PM 43.6420 -70.7750 32° Northeast 479 551 37,000  Level FlightAware
09:48PM 43.7050 -70.7200 32° Northeast 481 554 37,000  Level FlightAware
09:49PM 43.8030 -70.6370 31° Northeast 482 555 37,000  Level FlightAware
09:50PM 43.8790 -70.5700 32° Northeast 483 556 37,000  Level FlightAware
09:51PM 43.9750 -70.4870 32° Northeast 487 560 37,000  Level FlightAware
09:52PM 44.0700 -70.4040 32° Northeast 488 562 37,000 -120 Level FlightAware
09:52PM 44.1310 -70.3520 31° Northeast 488 562 36,900  Descending FlightAware
09:54PM 44.3120 -70.1920 32° Northeast 491 565 37,000  Climbing FlightAware
09:54PM 44.3800 -70.1310 33° Northeast 492 566 36,900  Descending FlightAware
09:55PM 44.4600 -70.0610 32° Northeast 494 568 37,000 60 Climbing FlightAware
09:56PM 44.5430 -69.9870 32° Northeast 496 571 37,000 120 Level FlightAware
09:56PM 44.6120 -69.9250 33° Northeast 496 571 37,200 540 Climbing FlightAware
09:57PM 44.7040 -69.8430 32° Northeast 497 572 37,800 780 Climbing FlightAware
09:58PM 44.8130 -69.7440 33° Northeast 497 572 38,600 600 Climbing FlightAware
09:59PM 44.9010 -69.6660 32° Northeast 491 565 38,900 240 Climbing FlightAware
10:00PM 44.9830 -69.5900 33° Northeast 482 555 39,000  Climbing FlightAware
10:00PM 45.0420 -69.5370 32° Northeast 481 554 38,900 -120 Descending FlightAware
10:01PM 45.1270 -69.4610 32° Northeast 484 557 38,900  Level FlightAware
10:02PM 45.2170 -69.3780 33° Northeast 485 558 38,900  Level FlightAware
10:02PM 45.2830 -69.3170 33° Northeast 487 560 38,900  Level FlightAware
10:03PM 45.3810 -69.2270 33° Northeast 490 564 38,900  Level FlightAware
10:04PM 45.4580 -69.1560 33° Northeast 491 565 38,900  Level FlightAware
10:06PM 45.6650 -68.9620 33° Northeast 496 571 38,900  Level FlightAware
10:07PM 45.8720 -68.7680 33° Northeast 493 567 38,900  Level FlightAware
10:08PM 45.9740 -68.6730 33° Northeast 484 557 38,900  Level FlightAware
10:09PM 46.0450 -68.6050 34° Northeast 477 549 38,900  Level FlightAware
10:13PM 46.5060 -68.1620 33° Northeast 502 578 38,900  Level FlightAware
10:16PM 46.8270 -67.8490 34° Northeast 511 588 39,000  Climbing FlightAware
10:17PM 46.9167 -67.7500 34° Northeast 510 587 38,900 -120 Descending Moncton Center
10:17PM 46.9686 -67.6981 34° Northeast 508 585 38,900  Level Boston Center
10:18PM 47.0333 -67.6167 41° Northeast 520 598 38,900  Level Moncton Center
10:19PM 47.1500 -67.5000 34° Northeast 520 598 38,900  Level Moncton Center
10:19PM 47.2308 -67.4431 26° Northeast 519 597 38,900  Level Boston Center
10:20PM 47.3464 -67.3222 35° Northeast 519 597 38,900  Level Boston Center
10:21PM 47.4000 -67.2667 35° Northeast 510 587 38,900  Level Moncton Center
10:22PM 47.5000 -67.1167 45° Northeast 520 598 38,900  Level Moncton Center
10:23PM 47.6167 -66.9833 38° Northeast 510 587 38,900  Level Moncton Center
10:24PM 47.7167 -66.8667 38° Northeast 510 587 38,900  Level Moncton Center
10:25PM 47.8333 -66.7167 41° Northeast 510 587 38,900  Level Moncton Center
10:26PM 47.9500 -66.5667 41° Northeast 500 575 38,900  Level Moncton Center
10:27PM 48.0500 -66.4500 38° Northeast 520 598 38,900  Level Moncton Center
10:28PM 48.1667 -66.3000 41° Northeast 520 598 38,900  Level Moncton Center
10:29PM 48.2667 -66.1500 45° Northeast 530 610 38,900  Level Moncton Center
10:30PM 48.4000 -66.0167 34° Northeast 520 598 38,900  Level Moncton Center
10:31PM 48.5000 -65.8833 41° Northeast 520 598 38,900  Level Moncton Center
10:32PM 48.6167 -65.7333 40° Northeast 520 598 38,900  Level Moncton Center
10:33PM 48.7167 -65.5833 45° Northeast 520 598 38,900  Level Moncton Center
10:34PM 48.8167 -65.4667 38° Northeast 520 598 38,900  Level Moncton Center
10:35PM 48.9333 -65.3167 40° Northeast 520 598 38,900  Level Moncton Center
10:36PM 49.0333 -65.1667 44° Northeast 520 598 38,900  Level Moncton Center
10:37PM 49.1500 -65.0167 40° Northeast 520 598 38,900  Level Moncton Center
10:38PM 49.2500 -64.8833 41° Northeast 520 598 38,900  Level Moncton Center
10:39PM 49.3667 -64.7333 40° Northeast 520 598 38,900  Level Moncton Center
10:40PM 49.4667 -64.5833 44° Northeast 520 598 38,900  Level Moncton Center
10:41PM 49.5667 -64.4167 47° Northeast 520 598 38,900  Level Moncton Center
10:42PM 49.7000 -64.2667 36° Northeast 520 598 38,900  Level Moncton Center
10:43PM 49.8000 -64.1333 41° Northeast 520 598 38,900  Level Moncton Center
10:44PM 49.9167 -63.9833 40° Northeast 520 598 38,900  Level Moncton Center
10:45PM 50.0167 -63.8167 47° Northeast 520 598 38,900  Level Moncton Center
10:46PM 50.1167 -63.6667 44° Northeast 520 598 38,900  Level Moncton Center
10:47PM 50.2167 -63.5333 40° Northeast 520 598 38,900  Level Moncton Center
10:48PM 50.3333 -63.3667 42° Northeast 520 598 38,900  Level Moncton Center
10:49PM 50.4333 -63.2167 44° Northeast 520 598 38,900  Level Moncton Center
10:50PM 50.5500 -63.0500 42° Northeast 520 598 38,900  Level Moncton Center
10:51PM 50.6500 -62.9000 44° Northeast 530 610 38,900  Level Moncton Center
10:52PM 50.7667 -62.7333 42° Northeast 520 598 38,900  Level Moncton Center
10:53PM 50.8667 -62.6000 40° Northeast 530 610 38,900  Level Moncton Center
10:54PM 50.9833 -62.4333 42° Northeast 530 610 38,900  Level Moncton Center
10:55PM 51.0833 -62.2667 46° Northeast 520 598 38,900  Level Moncton Center
10:56PM 51.2000 -62.1000 42° Northeast 530 610 38,900  Level Moncton Center
10:57PM 51.2833 -61.9667 45° Northeast 520 598 38,900  Level Moncton Center
10:58PM 51.4000 -61.7667 47° Northeast 530 610 38,900  Level Moncton Center
10:59PM 51.5000 -61.6333 40° Northeast 530 610 38,900  Level Moncton Center
11:00PM 51.6167 -61.4667 42° Northeast 530 610 38,900  Level Moncton Center
11:01PM 51.7167 -61.2833 49° Northeast 530 610 38,900  Level Moncton Center
11:02PM 51.8167 -61.1167 46° Northeast 530 610 38,900  Level Moncton Center
11:03PM 51.9167 -60.9500 46° Northeast 520 598 38,900  Level Moncton Center
11:04PM 52.0333 -60.7833 41° Northeast 520 598 38,900  Level Moncton Center
11:05PM 52.1333 -60.6167 46° Northeast 520 598 38,900  Level Moncton Center
11:06PM 52.2167 -60.4333 53° Northeast 520 598 38,900  Level Moncton Center
11:07PM 52.3167 -60.2667 46° Northeast 520 598 38,900  Level Moncton Center
11:08PM 52.4167 -60.0833 48° Northeast 520 598 38,900  Level Moncton Center
11:09PM 52.5167 -59.9167 45° Northeast 510 587 38,900  Level Moncton Center
11:10PM 52.6167 -59.7333 48° Northeast 510 587 38,900  Level Moncton Center
11:11PM 52.7000 -59.5667 50° Northeast 510 587 38,900  Level Moncton Center
11:12PM 52.8000 -59.3833 48° Northeast 510 587 38,900  Level Moncton Center
11:13PM 52.9000 -59.2167 45° Northeast 510 587 38,900  Level Moncton Center
11:14PM 52.9833 -59.0667 47° Northeast 510 587 38,900  Level Moncton Center
11:15PM 53.0833 -58.8500 52° Northeast 510 587 38,900  Level Moncton Center
11:16PM 53.1667 -58.7000 47° Northeast 510 587 38,900  Level Moncton Center
11:16PM 53.2333 -58.6000 42° Northeast 510 587 38,900  Level Gander Center
11:17PM 53.2833 -58.5000 50° Northeast 510 587 38,900  Level Moncton Center
11:18PM 53.3667 -58.3333 50° Northeast 510 587 38,900  Level Moncton Center
11:19PM 53.4667 -58.1667 45° Northeast 510 587 38,900  Level Moncton Center
11:20PM 53.5500 -57.9833 53° Northeast 510 587 38,900  Level Moncton Center
11:20PM 53.6167 -57.8667 46° Northeast 510 587 38,900  Level Gander Center
11:21PM 53.7000 -57.7000 50° Northeast 510 587 38,900  Level Gander Center
11:22PM 53.7333 -57.6167 56° Northeast 510 587 38,900  Level Moncton Center
11:23PM 53.8333 -57.4167 50° Northeast 510 587 38,900  Level Moncton Center
11:24PM 53.9333 -57.2333 47° Northeast 510 587 38,900  Level Moncton Center
11:25PM 54.0000 -57.0500 58° Northeast 510 587 38,900  Level Moncton Center
11:26PM 54.1000 -56.8667 47° Northeast 510 587 38,900  Level Moncton Center
11:27PM 54.2000 -56.6833 47° Northeast 510 587 38,900  Level Moncton Center
11:28PM 54.2833 -56.4833 54° Northeast 510 587 38,900  Level Moncton Center
11:29PM 54.3833 -56.3000 47° Northeast 510 587 38,900  Level Moncton Center
11:30PM 54.4667 -56.1333 49° Northeast 510 587 38,900  Level Moncton Center
11:31PM 54.5500 -55.9500 52° Northeast 500 575 38,900  Level Moncton Center
11:32PM 54.6500 -55.7500 49° Northeast 500 575 38,900  Level Moncton Center
11:33PM 54.6167 -55.8667 52° Northeast 487 560 39,000  Climbing ETMS Enhanced Traffic Management System
11:33PM 54.7833 -55.4500 52° Northeast 490 564 38,900 -120 Descending Gander Center
11:34PM 54.8167 -55.3667 55° Northeast 490 564 38,900  Level Moncton Center
11:35PM 54.9000 -55.2000 49° Northeast 490 564 38,900  Level Moncton Center
11:36PM 54.9833 -54.9833 56° Northeast 490 564 38,900  Level Moncton Center
11:37PM 55.0667 -54.8167 49° Northeast 490 564 38,900  Level Moncton Center
11:38PM 55.1500 -54.6167 54° Northeast 490 564 38,900  Level Moncton Center
11:38PM 55.1833 -54.5167 60° Northeast 490 564 38,900  Level Gander Center
11:39PM 55.2667 -54.3167 54° Northeast 480 552 38,900  Level Gander Center
11:40PM 55.3500 -54.1667 46° Northeast 490 564 38,900  Level Gander Center
11:41PM 55.4167 -53.9667 60° Northeast 480 552 38,900  Level Gander Center
11:42PM 55.5000 -53.7833 51° Northeast 490 564 38,900  Level Gander Center
11:43PM 55.5833 -53.5833 54° Northeast 490 564 38,900  Level Gander Center
11:44PM 55.6500 -53.4000 57° Northeast 480 552 38,900  Level Gander Center
11:45PM 55.7500 -53.2000 48° Northeast 480 552 38,900  Level Gander Center
11:46PM 55.8167 -53.0000 59° Northeast 480 552 38,900  Level Gander Center
11:47PM 55.8833 -52.8167 57° Northeast 490 564 38,900  Level Gander Center
11:48PM 55.9667 -52.6167 53° Northeast 490 564 38,900  Level Gander Center
11:49PM 56.0500 -52.4167 53° Northeast 490 564 38,900  Level Gander Center
11:50PM 56.1333 -52.2167 53° Northeast 490 564 38,900  Level Gander Center
11:51PM 56.2167 -52.0167 53° Northeast 490 564 38,900  Level Gander Center
11:52PM 56.2833 -51.8833 48° Northeast 270 311 38,900  Level Gander Center
11:53PM 56.3833 -51.6833 48° Northeast 420 483 38,900  Level Gander Center
11:54PM 56.4500 -51.4500 63° Northeast 510 587 38,900  Level Gander Center
11:56PM 56.5705 -51.1395 55° Northeast  Level FlightAware Approximate
12:03AM 57.0834 -49.7723 56° Northeast  Level FlightAware Approximate
12:03AM 57.0000 -50.0000 56° Northeast 481 554 39,000  Level ETMS Enhanced Traffic Management System
12:04AM 57.1555 -49.5739 56° Northeast  Level FlightAware Approximate
12:04AM 57.1833 -49.4167 57° Northeast 480 552 38,900  Level Gander Center
12:05AM 57.2272 -49.3747 56° Northeast  Level FlightAware Approximate
12:05AM 57.2667 -49.2167 52° Northeast 480 552 38,900  Level Gander Center
12:06AM 57.2986 -49.1748 56° Northeast  Level FlightAware Approximate
12:06AM 57.3333 -49.0000 60° Northeast 480 552 38,900  Level Gander Center
12:07AM 57.3697 -48.9741 57° Northeast  Level FlightAware Approximate
12:07AM 57.4000 -48.7833 60° Northeast 480 552 38,900  Level Gander Center
12:08AM 57.4405 -48.7726 57° Northeast  Level FlightAware Approximate
12:08AM 57.4667 -48.5833 58° Northeast 480 552 38,900  Level Gander Center
12:09AM 57.5883 -48.3469 57° Northeast 481 554 39,000  Climbing FlightAware Transoceanic
12:09AM 57.5500 -48.4000 50° Northeast 480 552 38,900 -120 Descending Gander Center
12:10AM 57.6167 -48.1833 60° Northeast 480 552 38,900  Level Gander Center
12:11AM 57.7000 -47.9667 54° Northeast 480 552 38,900  Level Gander Center
12:12AM 57.7500 -47.7500 67° East 480 552 38,900  Level Gander Center
12:13AM 57.8333 -47.5333 54° Northeast 490 564 38,900  Level Gander Center
12:14AM 57.9000 -47.3167 60° Northeast 490 564 38,900  Level Gander Center
12:15AM 57.9833 -47.1000 54° Northeast 490 564 38,900  Level Gander Center
12:16AM 58.0333 -46.8833 66° East 480 552 38,900  Level Gander Center
12:17AM 58.1167 -46.6500 56° Northeast 480 552 38,900  Level Gander Center
12:18AM 58.1833 -46.4667 55° Northeast 480 552 38,900  Level Gander Center
12:19AM 58.2500 -46.2500 60° Northeast 480 552 38,900  Level Gander Center
12:20AM 58.3167 -46.0333 60° Northeast 480 552 38,900  Level Gander Center
12:21AM 58.3833 -45.8000 61° Northeast 480 552 38,900  Level Gander Center
12:22AM 58.4500 -45.5833 59° Northeast 480 552 38,900  Level Gander Center
12:23AM 58.5167 -45.3500 61° Northeast 480 552 38,900  Level Gander Center
12:24AM 58.5833 -45.1333 59° Northeast 480 552 38,900  Level Gander Center
12:25AM 58.6500 -44.9000 61° Northeast 480 552 38,900  Level Gander Center
12:26AM 58.7333 -44.6667 55° Northeast 480 552 38,900  Level Gander Center
12:27AM 58.7833 -44.4833 62° Northeast 480 552 38,900  Level Gander Center
12:28AM 58.8667 -44.2500 55° Northeast 480 552 38,900  Level Gander Center
12:29AM 58.9167 -44.0167 67° East 480 552 38,900  Level Gander Center
12:30AM 58.9833 -43.7833 61° Northeast 490 564 38,900  Level Gander Center
12:31AM 59.0333 -43.5667 66° East 480 552 38,900  Level Gander Center
12:32AM 59.1167 -43.3333 55° Northeast 480 552 38,900  Level Gander Center
12:33AM 59.1667 -43.1000 67° East 490 564 38,900  Level Gander Center
12:34AM 59.2333 -42.8667 61° Northeast 490 564 38,900  Level Gander Center
12:35AM 59.2833 -42.6333 67° East 490 564 38,900  Level Gander Center
12:36AM 59.3500 -42.3833 62° Northeast 490 564 38,900  Level Gander Center
12:37AM 59.4167 -42.1667 59° Northeast 490 564 38,900  Level Gander Center
12:38AM 59.4833 -41.9167 62° Northeast 490 564 38,900  Level Gander Center
12:39AM 59.5500 -41.7167 57° Northeast 490 564 38,900  Level Gander Center
12:40AM 59.6000 -41.4833 67° East 490 564 38,900  Level Gander Center
12:41AM 59.6667 -41.2333 62° Northeast 490 564 38,900  Level Gander Center
12:42AM 59.7167 -41.0000 67° East 480 552 38,900  Level Gander Center
12:43AM 59.7833 -40.7500 62° Northeast 480 552 38,900  Level Gander Center
12:44AM 59.8333 -40.5167 67° East 480 552 38,900  Level Gander Center
12:45AM 59.9000 -40.2667 62° Northeast 480 552 38,900  Level Gander Center
12:46AM 59.9500 -40.0333 67° East 480 552 38,900  Level Gander Center
12:47AM 60.0167 -39.8167 58° Northeast 480 552 38,900  Level Gander Center
12:48AM 60.0833 -39.6000 58° Northeast 480 552 38,900  Level Gander Center
12:49AM 60.1667 -39.4000 50° Northeast 480 552 38,900  Level Gander Center
12:50AM 60.2500 -39.1833 52° Northeast 480 552 38,900  Level Gander Center
12:51AM 60.3167 -38.9500 60° Northeast 480 552 38,900  Level Gander Center
12:52AM 60.4000 -38.7667 47° Northeast 480 552 38,900  Level Gander Center
12:53AM 60.4667 -38.5333 60° Northeast 480 552 38,900  Level Gander Center
12:54AM 60.5500 -38.3000 54° Northeast 480 552 38,900  Level Gander Center
12:55AM 60.6167 -38.1167 53° Northeast 480 552 38,900  Level Gander Center
12:56AM 60.7000 -37.8833 54° Northeast 480 552 38,900  Level Gander Center
12:57AM 60.7667 -37.6500 60° Northeast 480 552 38,900  Level Gander Center
12:58AM 60.8500 -37.4500 49° Northeast 480 552 38,900  Level Gander Center
12:59AM 60.9167 -37.2167 59° Northeast 480 552 38,900  Level Gander Center
01:00AM 61.0000 -36.9833 54° Northeast 480 552 38,900  Level Gander Center
01:01AM 61.0667 -36.7833 55° Northeast 480 552 38,900  Level Gander Center
01:02AM 61.1333 -36.5333 61° Northeast 480 552 38,900  Level Gander Center
01:03AM 61.2000 -36.3000 59° Northeast 480 552 38,900  Level Gander Center
01:04AM 61.2833 -36.1000 49° Northeast 480 552 38,900  Level Gander Center
01:07AM 61.5333 -35.2667 58° Northeast 490 564 38,900  Level Gander Center
01:08AM 61.6167 -35.0167 55° Northeast 480 552 38,900  Level Gander Center
01:10AM 61.7160 -34.7027 56° Northeast  Level FlightAware Approximate
01:17AM 62.2130 -33.0626 56° Northeast  Level FlightAware Approximate
01:18AM 62.2797 -32.8195 59° Northeast  Level FlightAware Approximate
01:19AM 62.3456 -32.5758 60° Northeast  Level FlightAware Approximate
01:20AM 62.4111 -32.3311 60° Northeast  Level FlightAware Approximate
01:21AM 62.4762 -32.0852 60° Northeast  Level FlightAware Approximate
01:22AM 62.5408 -31.8383 60° Northeast  Level FlightAware Approximate
01:23AM 62.6050 -31.5904 61° Northeast  Level FlightAware Approximate
01:24AM 62.6687 -31.3413 61° Northeast  Level FlightAware Approximate
01:25AM 62.7320 -31.0912 61° Northeast  Level FlightAware Approximate
01:26AM 62.7949 -30.8400 61° Northeast  Level FlightAware Approximate
01:27AM 62.8573 -30.5878 61° Northeast  Level FlightAware Approximate
01:28AM 62.9193 -30.3345 62° Northeast  Level FlightAware Approximate
01:29AM 62.9808 -30.0801 62° Northeast  Level FlightAware Approximate
01:30AM 63.0298 -29.8131 71° East  Level FlightAware Approximate
01:30AM 63.0000 -30.0000 70° East 470 541 39,000  Level ETMS Enhanced Traffic Management System
01:31AM 63.0728 -29.5399 71° East  Level FlightAware Approximate
01:32AM 63.1152 -29.2660 71° East  Level FlightAware Approximate
01:32AM 63.1380 -29.1710 71° East 473 544 38,900  Level FlightAware
01:33AM 63.1680 -28.9890 70° East 473 544 38,900  Level FlightAware
01:34AM 63.2010 -28.7800 71° East 474 545 38,900  Level FlightAware
01:34AM 63.2310 -28.5960 70° East 474 545 38,900  Level FlightAware
01:35AM 63.2630 -28.3940 71° East 476 548 38,900 60 Level FlightAware
01:36AM 63.3045 -28.0810 72° East 470 541 39,000  Climbing FlightAware Transoceanic
01:36AM 63.2910 -28.2100 72° East 476 548 38,900 -120 Descending FlightAware
01:37AM 63.3170 -28.0430 71° East 477 549 38,900  Level FlightAware
01:37AM 63.3510 -27.8200 71° East 478 550 38,900 -240 Level FlightAware
01:38AM 63.3800 -27.6240 72° East 477 549 38,600 -1,380 Descending FlightAware
01:39AM 63.4110 -27.4190 71° East 479 551 37,000 -2,340 Descending FlightAware
01:39AM 63.4390 -27.2310 72° East 479 551 35,300 -2,700 Descending FlightAware
01:40AM 63.4700 -27.0190 72° East 479 551 33,200 -2,940 Descending FlightAware
01:41AM 63.4960 -26.8360 72° East 479 551 31,200 -3,180 Descending FlightAware
01:41AM 63.5240 -26.6380 72° East 475 547 29,000 -2,880 Descending FlightAware
01:42AM 63.5500 -26.4540 72° East 460 529 27,400 -2,400 Descending FlightAware
01:43AM 63.5780 -26.2570 72° East 445 512 25,600 -2,520 Descending FlightAware
01:44AM 63.6020 -26.0830 73° East 432 497 23,900 -2,400 Descending FlightAware
01:44AM 63.6280 -25.8900 73° East 416 479 22,200 -2,220 Descending FlightAware
01:45AM 63.6520 -25.7100 73° East 403 464 20,600 -2,220 Descending FlightAware
01:46AM 63.6730 -25.5530 73° East 390 449 19,100 -2,160 Descending FlightAware
01:46AM 63.6910 -25.4190 73° East 379 436 17,900 -1,980 Descending FlightAware
01:47AM 63.7140 -25.2390 74° East 368 423 16,300 -2,100 Descending FlightAware
01:48AM 63.7320 -25.1050 73° East 360 414 15,000 -2,280 Descending FlightAware
01:49AM 63.7550 -24.9270 74° East 351 404 13,100 -2,280 Descending FlightAware
01:49AM 63.7710 -24.8010 74° East 346 398 11,800 -1,920 Descending FlightAware
01:50AM 63.7900 -24.6500 74° East 327 376 10,600 -900 Descending FlightAware
01:51AM 63.8070 -24.5100 75° East 282 325 10,500 -240 Descending FlightAware
01:51AM 63.8200 -24.4030 75° East 261 300 10,300 -600 Descending FlightAware
01:52AM 63.8300 -24.3220 74° East 269 310 9,800 -1,020 Descending FlightAware
01:52AM 63.8380 -24.2560 75° East 273 314 9,400 -1,140 Descending FlightAware
01:53AM 63.8490 -24.1730 73° East 277 319 8,800 -1,140 Descending FlightAware
01:53AM 63.8590 -24.0890 75° East 272 313 8,300 -1,020 Descending FlightAware
01:54AM 63.8670 -24.0210 75° East 263 303 7,900 -900 Descending FlightAware
01:54AM 63.8760 -23.9430 75° East 252 290 7,500 -900 Descending FlightAware
01:55AM 63.8840 -23.8770 75° East 257 296 7,100 -1,020 Descending FlightAware
01:55AM 63.8930 -23.8000 75° East 257 296 6,600 -1,020 Descending FlightAware
01:56AM 63.9030 -23.7200 74° East 251 289 6,100 -900 Descending FlightAware
01:56AM 63.9100 -23.6600 75° East 249 287 5,800 -840 Descending FlightAware
01:56AM 63.9110 -23.6550 66° East 248 285 5,700 -1,200 Descending FlightAware
01:59AM 63.9403 -22.9074 78° East  Level FlightAware Approximate
02:00AM 63.9667 -22.6167 78° East  Level FlightAware Approximate
02:01AM 63.9850 -22.6056 78° East  Level Estimated
02:02AM 63.9850 -22.6056 78° East  Level Estimated
02:03AM 63.9850 -22.6056 78° East  Level Estimated
02:04AM 63.9850 -22.6056 78° East  Level Estimated
02:05AM 63.9850 -22.6056 78° East  Level Estimated
02:06AM 63.9850 -22.6056 78° East  Level Estimated
02:07AM 63.9850 -22.6056 78° East  Level Estimated
02:08AM 63.9850 -22.6056 78° East  Level Estimated
02:09AM 63.9850 -22.6056 78° East  Level Estimated
02:10AM 63.9850 -22.6056 78° East  Level Estimated
02:11AM 63.9850 -22.6056 78° East  Level Estimated
02:12AM 63.9850 -22.6056 78° East  Level Estimated
02:13AM 63.9850 -22.6056 78° East  Level Estimated
02:14AM 63.9850 -22.6056 78° East  Level Estimated
02:15AM 63.9850 -22.6056 78° East  Level Estimated
02:16AM 63.9850 -22.6056 78° East  Level Estimated
02:17AM 63.9850 -22.6056 78° East  Level Estimated
02:18AM 63.9850 -22.6056 78° East  Level Estimated